Airfield :
LOGIN :

Register | Disclaimer

   EN    FR    IT 

 










Legend :    VFR   Marginal VFR   IFR   Intensive IFR   Very Intensive IFR
Visi :
Ceiling :
>= 8 km
>= 3000ft
5 to 8 km
1000 to 3000 ft
1500m to 5 km
500 to 1000 ft
800 to 1500m
200 to 500 ft
< 800m
< 200 ft
Symbols :   Thunderstorms  Fog  Heavy snow  Heavy precipitations  Wind > 20 kt
SIGMETs :     Misc.  Thunderstorms  Icing  Turbulence  Mountain Waves  Volcanic Ashes







- Airport Elevation : 357 ft
- IATA code : TUF
- Download approach charts


LFOT - Tours

CURRENT METAR :
  • 181200Z AUTO 00000KT 9999 OVC013 08/05 Q1027 BECMG SCT012 BKN040

EXPIRED METARs :
  • 181130Z AUTO VRB01KT 9999 BKN011 OVC016 08/05 Q1027 BECMG SCT012 BKN040
  • 181100Z AUTO VRB01KT 9999 OVC010 08/05 Q1027 NOSIG
  • 181030Z AUTO 00000KT 9999 OVC008 07/05 Q1027 BECMG BKN012
  • 181000Z AUTO VRB02KT 9999 OVC007 07/05 Q1027 TEMPO 3000 BR BECMG BKN012
  • 180930Z AUTO VRB01KT 9000 OVC006 07/05 Q1027 TEMPO 3000 BR BECMG BKN012

TAF TAF LFOT
Valid from the 18 at 12:00 until the 19 at 12:00 UTC


181100Z 1812/1912 30003KT 9999 BKN008 BKN040
BECMG 1812/1814 SCT012 BKN040
BECMG 1818/1821 3000 BR SCT003
BECMG 1821/1824 2000 BR BKN002
PROB30
TEMPO 1823/1906 0300 FG VV///
TEMPO 1906/1912 0800 DZRA BKN002
No reported NOTAMs for that airfield.



MET'MAP, your aeronautical weather chart ! - Copyright ORBIFLY December 2007 - Disclaimer

ORBIFLY MET'MAP TEAM :

Programming & Development : Alexandra Zaïnal
Concept & Development : Baudouin d'Aumeries
Co-Development & Prog : Marc-Olivier Méhu
Technical & hardware support : Manuel Goepfert

Contact : metmap@orbifly.com




SOURCES & CREDITS :

   NOAA